ARCT2: Red River, ARthur City

                                SHEF ID:       ARCT2     Red River at Arthur City, TX
STATION TYPE: Stream Gauge
Regulating: Stage = 27.00, Flow = 84609

PRECIP ELEVATION STAGE STAGE(2) RIV-FLOW BAT-LOAD
in ft ft ft cfs volt
Ccp-Rev Ccp-Rev Ccp-Rev Ccp-Rev Ccp-Rev Ccp-Rev
(America/Chicago)
05/04 00:00 0.00 ---- 5.76 ---- 2924 12.57
05/04 01:00 0.00 ---- 5.75 ---- 2909 12.49
05/04 02:00 0.00 ---- 5.73 ---- 2881 12.49
05/04 03:00 0.00 ---- 5.68 ---- 2814 12.49
05/04 04:00 0.00 ---- 5.63 ---- 2748 12.49
05/04 05:00 0.00 ---- 5.59 ---- 2695 12.41
05/04 06:00 0.00 ---- 5.59 ---- 2695 12.41
05/04 07:00 0.00 ---- 5.52 ---- 2604 12.41
05/04 08:00 0.00 ---- 5.52 ---- 2604 12.57
05/04 09:00 0.00 ---- 5.46 ---- 2528 13.13
05/04 10:00 0.00 ---- 5.44 ---- 2502 13.68
05/04 11:00 0.00 ---- 5.34 ---- 2377 14.24
05/04 12:00 0.00 ---- 5.32 ---- 2353 13.68
05/04 13:00 0.00 ---- 5.21 ---- 2219 13.76
05/04 14:00 0.00 ---- 5.19 ---- 2196 13.84
05/04 15:00 0.00 ---- 5.19 ---- 2196 13.76
05/04 16:00 0.00 ---- 5.15 ---- 2148 13.60
05/04 17:00 0.00 ---- 5.11 ---- 2101 13.68
05/04 18:00 0.00 ---- 5.12 ---- 2113 13.60
05/04 19:00 0.00 ---- 5.10 ---- 2090 13.37
05/04 20:00 0.00 ---- 5.06 ---- 2043 13.21
05/04 21:00 0.00 ---- 5.06 ---- 2043 12.81
05/04 22:00 0.00 ---- 5.05 ---- 2032 12.57
05/04 23:00 0.00 ---- 5.03 ---- 2009 12.57
Data processed at Tue 05May2026 04:30 GMT

NOTICE: If you are parsing this page

Please convert to using our Data API. Starting early 2026 we will be migrating to: https://water.usace.army.mil with modern pages rendered in JavaScript. When this migration completes you will no longer be able to scrape this page! CWMSDataAPI (CDA)

Timeseries IDs (TSIDs)

TSIDs used from left to right in the data table
ARTH.Precip-Inc.Total.1Hour.1Hour.Ccp-Rev
ARTH.Stage.Inst.1Hour.0.Ccp-Rev
ARTH.Stage-Alt.Inst.1Hour.0.Ccp-Rev
ARTH.Flow.Inst.1Hour.0.Ccp-Rev
ARTH.Volt-Battery Load.Inst.1Hour.0.Ccp-Rev

                            

All information presented herein is the property of the government of the United States of America and may be revised or deleted at any time without prior notice. Dissemination of this information without the expressed written consent of the Public Affairs Office, Tulsa District U.S. Army Corps of Engineers is strictly prohibited. These data are gathered electronically and, as presented, have NOT undergone any form of quality control. These data are NOT guaranteed to be valid or correct.